Latest Weather Observations for Perth Airport

IDW60901

Issued at 10:11 am WST Wednesday 21 April 2021 (issued every 10 minutes, with the page automatically refreshed every 10 minutes)

About weather observations | Map of Perth area stations | Latest observations for Perth area | Other Formats
Station Details ID: 009021 Name: PERTH AIRPORT Lat: -31.93 Lon: 115.98 Height: 15.4 m
Data from the previous 72 hours. | See also: Recent months at Perth Airport
Date/Time
WST
Temp
°C
App
Temp
°C
Dew
Point
°C
Rel
Hum
%
Delta-T
°C
Wind Press
QNH
hPa
Press
MSL
hPa
Rain since
9am
mm
Dir  Spd
km/h
Gust
km/h
Spd
kts
Gust
kts
21/10:00am 20.6 17.2 11.2 55 5.2 ENE 20 28 11 15 1023.5 1023.5 0.0
21/09:30am 19.6 16.8 11.4 59 4.5 ENE 17 26 9 14 1023.6 1023.6 0.0
21/09:00am 18.6 16.5 12.4 67 3.4 ENE 15 24 8 13 1023.9 1023.9 0.0
21/08:30am 17.8 15.1 11.6 67 3.4 NE 17 24 9 13 1023.8 1023.8 0.0
21/08:00am 17.5 17.8 12.2 71 2.9 NNE 2 11 1 6 1023.6 1023.6 0.0
21/07:30am 16.2 14.6 11.4 73 2.6 N 11 17 6 9 1023.3 1023.3 0.0
21/07:00am 15.0 15.0 11.2 78 2.0 N 2 11 1 6 1023.2 1023.2 0.0
21/06:30am 15.5 15.3 11.7 78 2.1 S 4 9 2 5 1022.9 1022.9 0.0
21/06:00am 15.4 14.6 11.0 75 2.3 SW 6 9 3 5 1022.6 1022.6 0.0
21/05:30am 15.0 15.2 11.8 81 1.7 WNW 2 9 1 5 1022.4 1022.4 0.0
21/05:00am 12.6 11.6 11.0 90 0.8 WNW 7 9 4 5 1022.2 1022.2 0.0
21/04:30am 12.1 11.0 10.8 92 0.7 NNW 7 9 4 5 1022.0 1022.0 0.0
21/04:00am 12.2 10.4 10.8 91 0.7 S 11 17 6 9 1021.7 1021.7 0.0
21/03:30am 13.2 13.8 11.8 91 0.7 CALM 0 6 0 3 1021.7 1021.7 0.0
21/03:00am 12.1 11.6 10.7 91 0.7 NW 4 9 2 5 1021.7 1021.7 0.0
21/02:30am 12.8 10.5 10.5 86 1.2 SW 13 15 7 8 1021.9 1021.9 0.0
21/02:00am 12.9 10.8 11.0 88 1.0 SSW 13 19 7 10 1021.9 1021.9 0.0
21/01:30am 12.9 10.7 10.8 87 1.1 SSW 13 15 7 8 1021.9 1021.9 0.0
21/01:00am 13.0 10.7 10.5 85 1.3 SSW 13 17 7 9 1021.8 1021.8 0.0
21/12:30am 14.2 12.2 12.6 90 0.9 SSW 15 17 8 9 1021.6 1021.6 0.0
21/12:00am 12.6 10.6 10.1 85 1.3 SSW 11 13 6 7 1021.5 1021.5 0.0
 
Date/Time
WST
Temp
°C
App
Temp
°C
Dew
Point
°C
Rel
Hum
%
Delta-T
°C
Wind Press
QNH
hPa
Press
MSL
hPa
Rain since
9am
mm
Dir  Spd
km/h
Gust
km/h
Spd
kts
Gust
kts
20/11:30pm 15.2 13.5 12.3 83 1.6 SSW 13 15 7 8 1021.6 1021.6 0.0
20/11:00pm 14.1 13.3 11.8 86 1.2 SW 7 11 4 6 1021.7 1021.7 0.0
20/10:30pm 15.0 14.0 12.3 84 1.5 SSW 9 11 5 6 1021.7 1021.7 0.0
20/10:00pm 15.9 14.5 12.3 79 2.0 SSW 11 13 6 7 1021.6 1021.6 0.0
20/09:30pm 17.2 15.5 12.5 74 2.6 S 13 15 7 8 1021.4 1021.4 0.0
20/09:00pm 17.7 15.3 12.6 72 2.8 SSW 17 20 9 11 1021.4 1021.4 0.0
20/08:30pm 18.2 15.5 12.9 71 3.0 SSW 19 26 10 14 1021.5 1021.5 0.0
20/08:00pm 18.5 15.6 12.9 70 3.1 S 20 26 11 14 1021.3 1021.3 0.0
20/07:30pm 19.0 15.9 13.4 70 3.2 S 22 28 12 15 1021.3 1021.3 0.0
20/07:00pm 19.4 15.9 13.3 68 3.5 SSW 24 30 13 16 1021.0 1021.0 0.0
20/06:30pm 20.1 16.6 13.3 65 3.9 SSW 24 32 13 17 1020.5 1020.5 0.0
20/06:00pm 20.6 17.2 13.8 65 3.9 SW 24 35 13 19 1020.1 1020.1 0.0
20/05:30pm 21.9 19.4 13.5 59 4.8 SW 19 28 10 15 1019.8 1019.8 0.0
20/05:00pm 22.9 20.0 13.9 57 5.2 SW 22 30 12 16 1019.5 1019.5 0.0
20/04:30pm 23.6 20.1 13.5 53 5.9 SW 24 30 13 16 1019.3 1019.3 0.0
20/04:00pm 24.5 21.3 13.1 49 6.6 SW 22 33 12 18 1019.2 1019.2 0.0
20/03:30pm 25.9 24.1 12.0 42 8.0 SW 13 24 7 13 1019.2 1019.2 0.0
20/03:00pm 25.1 23.1 11.6 42 7.6 SW 13 26 7 14 1019.2 1019.2 0.0
20/02:30pm 24.9 22.4 12.2 45 7.3 SW 17 24 9 13 1019.2 1019.2 0.0
20/02:00pm 25.2 23.8 11.0 41 8.0 S 9 15 5 8 1019.3 1019.3 0.0
20/01:30pm 24.4 22.8 11.4 44 7.3 SSW 11 20 6 11 1019.5 1019.5 0.0
20/01:00pm 24.7 22.8 10.6 41 7.8 S 11 15 6 8 1019.7 1019.7 0.0
20/12:30pm 24.5 23.2 11.1 43 7.5 NNE 9 15 5 8 1020.0 1020.0 0.0
20/12:00pm 24.5 23.3 11.5 44 7.3 ENE 9 17 5 9 1020.3 1020.3 0.0
20/11:30am 23.8 22.5 12.4 48 6.5 ENE 11 19 6 10 1020.7 1020.7 0.0
20/11:00am 23.4 21.3 12.4 50 6.3 ENE 15 19 8 10 1020.9 1020.9 0.0
20/10:30am 22.5 19.2 12.7 54 5.6 E 22 32 12 17 1021.0 1021.0 0.0
20/10:00am 21.5 17.9 13.2 59 4.7 ENE 24 30 13 16 1021.1 1021.1 0.0
20/09:30am 20.0 15.2 13.0 64 4.0 ENE 30 37 16 20 1021.3 1021.3 0.0
20/09:00am 19.5 14.4 13.0 66 3.7 E 32 41 17 22 1021.4 1021.4 0.0
20/08:30am 18.9 14.2 13.1 69 3.3 E 30 39 16 21 1021.2 1021.2 0.0
20/08:00am 18.2 13.8 12.9 71 3.0 E 28 35 15 19 1021.0 1021.0 0.0
20/07:30am 17.5 14.9 13.2 76 2.4 E 19 37 10 20 1020.7 1020.7 0.0
20/07:00am 15.7 15.2 13.9 89 1.0 ENE 9 19 5 10 1020.3 1020.3 0.0
20/06:30am 13.2 12.6 12.4 95 0.4 ESE 7 17 4 9 1020.1 1020.1 0.0
20/06:00am 11.4 10.3 10.8 96 0.3 N 7 9 4 5 1019.7 1019.7 0.0
20/05:38am 11.1 9.6 10.5 96 0.3 NNE 9 11 5 6 1019.6 1019.6 0.0
20/05:30am 11.1 9.6 10.5 96 0.3 N 9 11 5 6 1019.5 1019.5 0.0
20/05:00am 10.2 8.8 9.4 95 0.4 N 7 9 4 5 1019.5 1019.5 0.0
20/04:30am 10.4 9.0 9.6 95 0.4 N 7 7 4 4 1019.5 1019.5 0.0
20/04:00am 10.4 8.6 9.6 95 0.4 N 9 9 5 5 1019.1 1019.1 0.0
20/03:30am 10.4 9.0 9.5 94 0.5 NW 7 7 4 4 1019.1 1019.1 0.0
20/03:00am 10.4 9.9 9.5 94 0.4 N 2 7 1 4 1019.2 1019.2 0.0
20/02:30am 10.7 9.6 9.8 94 0.5 NNE 6 7 3 4 1019.2 1019.2 0.0
20/02:00am 10.6 9.2 9.5 93 0.5 NNE 7 11 4 6 1019.2 1019.2 0.0
20/01:30am 11.1 9.8 9.9 92 0.6 SW 7 7 4 4 1019.2 1019.2 0.0
20/01:00am 11.6 11.7 10.3 92 0.7 CALM 0 0 0 0 1019.1 1019.1 0.0
20/12:30am 11.6 11.7 10.3 92 0.7 CALM 0 0 0 0 1019.0 1019.0 0.0
20/12:17am 11.8 12.0 10.5 92 0.7 CALM 0 0 0 0 1018.9 1018.9 0.0
20/12:00am 12.2 12.1 10.9 92 0.7 N 2 6 1 3 1019.0 1019.0 0.0
 
Date/Time
WST
Temp
°C
App
Temp
°C
Dew
Point
°C
Rel
Hum
%
Delta-T
°C
Wind Press
QNH
hPa
Press
MSL
hPa
Rain since
9am
mm
Dir  Spd
km/h
Gust
km/h
Spd
kts
Gust
kts
19/11:30pm 12.5 12.9 11.2 92 0.7 CALM 0 0 0 0 1019.1 1019.1 0.0
19/11:00pm 12.9 13.3 11.3 90 0.8 CALM 0 0 0 0 1019.2 1019.2 0.0
19/10:30pm 13.6 12.7 11.5 87 1.1 S 7 9 4 5 1019.1 1019.1 0.0
19/10:00pm 14.4 13.8 11.6 83 1.5 S 6 7 3 4 1019.1 1019.1 0.0
19/09:30pm 16.0 13.8 12.0 77 2.2 S 15 17 8 9 1019.2 1019.2 0.0
19/09:00pm 17.8 15.5 12.9 73 2.7 S 17 19 9 10 1019.1 1019.1 0.0
19/08:30pm 18.0 15.7 13.1 73 2.8 SSW 17 19 9 10 1018.9 1018.9 0.0
19/08:00pm 18.3 16.0 13.0 71 3.0 SSW 17 19 9 10 1018.8 1018.8 0.0
19/07:30pm 19.0 15.8 13.0 68 3.4 SSW 22 28 12 15 1019.0 1019.0 0.0
19/07:00pm 19.2 16.4 12.5 65 3.7 SSW 19 22 10 12 1018.6 1018.6 0.0
19/06:30pm 19.4 16.8 11.9 62 4.2 SSW 17 20 9 11 1018.3 1018.3 0.0
19/06:00pm 19.6 16.6 12.1 62 4.2 SW 19 22 10 12 1018.1 1018.1 0.0
19/05:30pm 20.4 17.2 11.9 58 4.7 SW 20 26 11 14 1017.9 1017.9 0.0
19/05:00pm 21.1 17.9 12.0 56 5.1 WSW 20 28 11 15 1017.8 1017.8 0.0
19/04:30pm 21.2 18.0 11.8 55 5.2 SW 20 30 11 16 1017.7 1017.7 0.0
19/04:00pm 22.1 18.0 11.5 51 5.9 WSW 24 33 13 18 1017.7 1017.7 0.0
19/03:30pm 22.8 18.9 10.9 47 6.6 WSW 22 32 12 17 1017.7 1017.7 0.0
19/03:00pm 23.7 21.1 9.3 40 7.8 WSW 13 26 7 14 1017.6 1017.6 0.0
19/02:30pm 23.3 19.5 9.0 40 7.7 SSW 19 28 10 15 1017.8 1017.8 0.0
19/02:00pm 23.2 20.0 9.9 43 7.2 SSW 17 32 9 17 1017.8 1017.8 0.0
19/01:30pm 23.2 18.9 10.9 46 6.8 SSW 24 35 13 19 1018.0 1018.0 0.0
19/01:00pm 22.3 18.0 10.8 48 6.3 S 24 32 13 17 1018.1 1018.1 0.0
19/12:30pm 21.7 18.6 11.7 53 5.6 S 19 30 10 16 1018.7 1018.7 0.0
19/12:00pm 22.2 18.5 11.6 51 5.9 S 22 35 12 19 1019.1 1019.1 0.0
19/11:30am 22.2 19.2 11.9 52 5.8 S 19 30 10 16 1019.4 1019.4 0.0
19/11:00am 21.2 17.9 11.0 52 5.6 SSW 19 28 10 15 1019.7 1019.7 0.0
19/10:30am 20.6 17.8 11.5 56 5.0 SSW 17 24 9 13 1020.0 1020.0 0.0
19/10:00am 19.8 19.6 11.8 60 4.4 NNW 4 7 2 4 1020.0 1020.0 0.0
19/09:30am 18.3 17.8 12.1 67 3.4 NW 6 7 3 4 1020.3 1020.3 0.0
19/09:00am 16.6 15.4 11.5 72 2.8 NNE 9 11 5 6 1020.2 1020.2 0.0
19/08:30am 15.9 16.3 11.1 73 2.6 CALM 0 0 0 0 1020.4 1020.4 0.0
19/08:00am 13.0 13.4 11.1 88 1.0 CALM 0 4 0 2 1020.6 1020.6 0.0
19/07:30am 11.5 10.3 10.4 93 0.6 SSE 7 9 4 5 1020.3 1020.3 0.0
19/07:00am 8.7 6.8 7.6 93 0.5 S 7 9 4 5 1019.9 1019.9 0.0
19/06:30am 8.8 6.5 7.6 92 0.6 SW 9 9 5 5 1019.9 1019.9 0.0
19/06:00am 9.2 6.6 7.8 91 0.7 S 11 15 6 8 1019.8 1019.8 0.0
19/05:53am 9.3 6.7 7.9 91 0.7 S 11 13 6 7 1019.7 1019.7 0.0
19/05:40am 9.6 7.1 8.0 90 0.8 S 11 13 6 7 1019.7 1019.7 0.0
19/05:30am 9.9 7.8 8.3 90 0.8 S 9 11 5 6 1019.7 1019.7 0.0
19/05:00am 9.5 7.3 7.9 90 0.8 SSW 9 11 5 6 1019.6 1019.6 0.0
19/04:30am 9.2 7.0 7.8 91 0.7 SW 9 15 5 8 1019.5 1019.5 0.0
19/04:00am 9.8 9.4 8.4 91 0.7 CALM 0 9 0 5 1019.3 1019.3 0.0
19/03:30am 9.5 9.0 7.9 90 0.8 CALM 0 0 0 0 1019.2 1019.2 0.0
19/03:00am 10.1 9.7 8.4 89 0.8 CALM 0 0 0 0 1019.3 1019.3 0.0
19/02:30am 10.5 9.0 8.4 87 1.0 S 6 9 3 5 1019.4 1019.4 0.0
19/02:00am 11.0 10.4 8.8 86 1.1 SW 2 7 1 4 1019.7 1019.7 0.0
19/01:30am 11.1 9.4 8.5 84 1.3 SSW 7 7 4 4 1019.8 1019.8 0.0
19/01:00am 11.9 10.0 8.9 82 1.5 S 9 11 5 6 1019.8 1019.8 0.0
19/12:30am 11.8 10.1 8.3 79 1.7 SSW 7 11 4 6 1020.1 1020.1 0.0
19/12:00am 12.9 10.9 8.6 75 2.1 SSW 9 13 5 7 1020.2 1020.2 0.0
 
Date/Time
WST
Temp
°C
App
Temp
°C
Dew
Point
°C
Rel
Hum
%
Delta-T
°C
Wind Press
QNH
hPa
Press
MSL
hPa
Rain since
9am
mm
Dir  Spd
km/h
Gust
km/h
Spd
kts
Gust
kts
18/11:30pm 14.7 13.2 9.1 69 2.9 SSW 7 11 4 6 1020.7 1020.7 0.0
18/11:00pm 16.3 13.7 9.5 64 3.5 S 13 17 7 9 1020.8 1020.8 0.0
18/10:30pm 17.0 14.1 9.7 62 3.8 S 15 19 8 10 1021.1 1021.1 0.0
18/10:00pm 18.3 14.7 9.9 58 4.4 SSW 19 24 10 13 1021.2 1021.2 0.0
18/09:30pm 18.7 15.1 9.8 56 4.7 SSW 19 26 10 14 1021.2 1021.2 0.0
18/09:00pm 19.2 15.6 9.9 55 4.9 SSW 19 24 10 13 1021.0 1021.0 0.0
18/08:30pm 19.8 16.1 10.0 53 5.3 SSW 20 26 11 14 1021.0 1021.0 0.0
18/08:00pm 20.3 16.5 9.8 51 5.6 S 20 28 11 15 1021.2 1021.2 0.0
18/07:30pm 20.9 17.3 9.8 49 6.0 SSW 19 24 10 13 1021.1 1021.1 0.0
18/07:00pm 21.6 18.4 9.8 47 6.3 SSW 17 24 9 13 1020.9 1020.9 0.0
18/06:30pm 22.1 18.1 8.9 43 7.0 SSW 20 28 11 15 1020.6 1020.6 0.0
18/06:00pm 22.9 18.6 7.8 38 7.9 SW 20 28 11 15 1020.5 1020.5 0.0
18/05:30pm 23.8 18.4 7.8 36 8.4 SW 26 33 14 18 1020.3 1020.3 0.0
18/05:00pm 24.9 20.1 8.8 36 8.7 WSW 24 32 13 17 1019.9 1019.9 0.0
18/04:30pm 25.9 20.1 8.0 32 9.6 WSW 28 32 15 17 1019.8 1019.8 0.0
18/04:00pm 26.8 21.4 7.8 30 10.2 WSW 26 32 14 17 1019.7 1019.7 0.0
18/03:30pm 28.1 24.8 4.4 22 12.1 SSW 11 19 6 10 1019.8 1019.8 0.0
18/03:00pm 28.3 25.8 4.6 22 12.1 SSE 7 11 4 6 1019.7 1019.7 0.0
18/02:30pm 28.0 25.0 4.3 22 12.0 ENE 9 17 5 9 1019.9 1019.9 0.0
18/02:00pm 27.8 24.7 3.5 21 12.1 ESE 9 13 5 7 1020.3 1020.3 0.0
18/01:30pm 28.0 24.8 5.0 23 11.8 E 11 17 6 9 1020.8 1020.8 0.0
18/01:00pm 27.6 24.2 4.0 22 11.9 E 11 17 6 9 1021.4 1021.4 0.0
18/12:30pm 27.3 23.7 5.0 24 11.4 SSE 13 20 7 11 1022.1 1022.1 0.0
18/12:00pm 26.6 22.1 6.1 27 10.6 ESE 19 26 10 14 1022.6 1022.6 0.0
18/11:30am 26.1 20.4 5.1 26 10.7 E 24 32 13 17 1023.2 1023.2 0.0
18/11:00am 25.6 22.8 6.8 30 9.8 ENE 11 24 6 13 1023.5 1023.5 0.0
18/10:30am 23.8 21.5 7.4 35 8.6 E 9 15 5 8 1024.0 1024.0 0.0

Latest Capital City Observations: Canberra | Sydney | Melbourne | Brisbane | Adelaide | Perth | Hobart | Darwin

Other formats

Comma delimited format used in spreadsheet applications
http://www.bom.gov.au/fwo/IDW60901/IDW60901.94610.axf

JavaScript Object Notation format (JSON) in row-major order
http://www.bom.gov.au/fwo/IDW60901/IDW60901.94610.json

Data quality

Most of these data are generated automatically and are frequently updated. Quality checks on data are not normally performed. It is possible for incorrect values to appear. Refer to information at About Latest Weather Observations and please check the disclaimer before using these data.